sensor_id;sensor_type;location;lat;lon;timestamp;P1;durP1;ratioP1;P2;durP2;ratioP2
26478;SDS011;14163;-26.142;27.992;2023-07-09T00:02:14;18.33;;;12.63;;
26478;SDS011;14163;-26.142;27.992;2023-07-09T00:04:44;14.10;;;12.70;;
26478;SDS011;14163;-26.142;27.992;2023-07-09T00:07:16;14.07;;;12.57;;
26478;SDS011;14163;-26.142;27.992;2023-07-09T00:09:54;14.43;;;12.77;;
26478;SDS011;14163;-26.142;27.992;2023-07-09T00:12:24;17.77;;;15.00;;
26478;SDS011;14163;-26.142;27.992;2023-07-09T00:14:55;15.03;;;13.53;;
26478;SDS011;14163;-26.142;27.992;2023-07-09T00:17:26;15.73;;;14.10;;
26478;SDS011;14163;-26.142;27.992;2023-07-09T00:19:59;15.10;;;13.70;;
26478;SDS011;14163;-26.142;27.992;2023-07-09T00:22:30;20.93;;;14.47;;
26478;SDS011;14163;-26.142;27.992;2023-07-09T00:25:00;17.60;;;14.20;;
26478;SDS011;14163;-26.142;27.992;2023-07-09T00:27:30;19.80;;;15.10;;
26478;SDS011;14163;-26.142;27.992;2023-07-09T00:30:02;19.60;;;15.57;;
26478;SDS011;14163;-26.142;27.992;2023-07-09T00:32:32;20.33;;;15.70;;
26478;SDS011;14163;-26.142;27.992;2023-07-09T00:35:08;19.20;;;16.43;;
26478;SDS011;14163;-26.142;27.992;2023-07-09T00:37:41;16.77;;;15.07;;
26478;SDS011;14163;-26.142;27.992;2023-07-09T00:40:15;22.80;;;17.87;;
26478;SDS011;14163;-26.142;27.992;2023-07-09T00:42:46;20.10;;;17.90;;
26478;SDS011;14163;-26.142;27.992;2023-07-09T00:45:22;20.83;;;17.80;;
26478;SDS011;14163;-26.142;27.992;2023-07-09T00:47:53;23.03;;;17.80;;
26478;SDS011;14163;-26.142;27.992;2023-07-09T00:50:27;19.03;;;16.73;;
26478;SDS011;14163;-26.142;27.992;2023-07-09T00:53:03;18.83;;;16.83;;
26478;SDS011;14163;-26.142;27.992;2023-07-09T00:55:38;18.83;;;16.67;;
26478;SDS011;14163;-26.142;27.992;2023-07-09T00:58:11;19.53;;;15.60;;
26478;SDS011;14163;-26.142;27.992;2023-07-09T01:00:46;16.63;;;14.83;;
26478;SDS011;14163;-26.142;27.992;2023-07-09T01:03:20;17.50;;;15.23;;
26478;SDS011;14163;-26.142;27.992;2023-07-09T01:05:55;18.43;;;15.77;;
26478;SDS011;14163;-26.142;27.992;2023-07-09T01:08:25;17.73;;;14.30;;
26478;SDS011;14163;-26.142;27.992;2023-07-09T01:10:57;15.93;;;14.30;;
26478;SDS011;14163;-26.142;27.992;2023-07-09T01:13:27;16.40;;;12.97;;
26478;SDS011;14163;-26.142;27.992;2023-07-09T01:15:59;8.03;;;7.20;;
26478;SDS011;14163;-26.142;27.992;2023-07-09T01:18:30;8.87;;;6.57;;
26478;SDS011;14163;-26.142;27.992;2023-07-09T01:21:01;7.10;;;6.40;;
26478;SDS011;14163;-26.142;27.992;2023-07-09T01:23:41;15.63;;;6.90;;
26478;SDS011;14163;-26.142;27.992;2023-07-09T01:26:11;11.30;;;6.73;;
26478;SDS011;14163;-26.142;27.992;2023-07-09T01:28:41;9.30;;;6.83;;
26478;SDS011;14163;-26.142;27.992;2023-07-09T01:31:11;7.63;;;6.43;;
26478;SDS011;14163;-26.142;27.992;2023-07-09T01:33:41;8.10;;;6.67;;
26478;SDS011;14163;-26.142;27.992;2023-07-09T01:36:14;12.00;;;6.90;;
26478;SDS011;14163;-26.142;27.992;2023-07-09T01:38:49;9.43;;;6.13;;
26478;SDS011;14163;-26.142;27.992;2023-07-09T01:41:19;9.63;;;7.00;;
26478;SDS011;14163;-26.142;27.992;2023-07-09T01:43:48;9.73;;;6.50;;
26478;SDS011;14163;-26.142;27.992;2023-07-09T01:46:17;7.33;;;6.50;;
26478;SDS011;14163;-26.142;27.992;2023-07-09T01:48:47;8.93;;;6.10;;
26478;SDS011;14163;-26.142;27.992;2023-07-09T01:51:20;9.70;;;5.80;;
26478;SDS011;14163;-26.142;27.992;2023-07-09T01:53:51;8.63;;;6.17;;
26478;SDS011;14163;-26.142;27.992;2023-07-09T01:56:21;7.70;;;6.13;;
26478;SDS011;14163;-26.142;27.992;2023-07-09T01:58:51;9.83;;;6.50;;
26478;SDS011;14163;-26.142;27.992;2023-07-09T02:01:27;7.77;;;6.57;;
26478;SDS011;14163;-26.142;27.992;2023-07-09T02:03:59;8.03;;;6.20;;
26478;SDS011;14163;-26.142;27.992;2023-07-09T02:06:31;9.30;;;6.07;;
26478;SDS011;14163;-26.142;27.992;2023-07-09T02:09:01;7.60;;;6.80;;
26478;SDS011;14163;-26.142;27.992;2023-07-09T02:11:30;14.07;;;8.50;;
26478;SDS011;14163;-26.142;27.992;2023-07-09T02:13:59;9.03;;;7.40;;
26478;SDS011;14163;-26.142;27.992;2023-07-09T02:16:28;9.57;;;8.07;;
26478;SDS011;14163;-26.142;27.992;2023-07-09T02:18:58;11.63;;;8.00;;
26478;SDS011;14163;-26.142;27.992;2023-07-09T02:21:28;9.93;;;7.60;;
26478;SDS011;14163;-26.142;27.992;2023-07-09T02:23:59;8.97;;;8.07;;
26478;SDS011;14163;-26.142;27.992;2023-07-09T02:26:28;8.37;;;7.50;;
26478;SDS011;14163;-26.142;27.992;2023-07-09T02:28:57;9.23;;;7.87;;
26478;SDS011;14163;-26.142;27.992;2023-07-09T02:31:26;9.10;;;8.10;;
26478;SDS011;14163;-26.142;27.992;2023-07-09T02:33:55;9.23;;;8.23;;
26478;SDS011;14163;-26.142;27.992;2023-07-09T02:36:25;11.57;;;8.57;;
26478;SDS011;14163;-26.142;27.992;2023-07-09T02:38:56;9.40;;;8.43;;
26478;SDS011;14163;-26.142;27.992;2023-07-09T02:41:25;8.90;;;8.10;;
26478;SDS011;14163;-26.142;27.992;2023-07-09T02:43:54;9.40;;;8.50;;
26478;SDS011;14163;-26.142;27.992;2023-07-09T02:46:23;9.27;;;7.90;;
26478;SDS011;14163;-26.142;27.992;2023-07-09T02:48:52;8.47;;;7.67;;
26478;SDS011;14163;-26.142;27.992;2023-07-09T02:51:22;9.37;;;7.83;;
26478;SDS011;14163;-26.142;27.992;2023-07-09T02:53:53;53.17;;;33.93;;
26478;SDS011;14163;-26.142;27.992;2023-07-09T02:56:24;27.30;;;19.03;;
26478;SDS011;14163;-26.142;27.992;2023-07-09T02:58:54;9.93;;;8.47;;
26478;SDS011;14163;-26.142;27.992;2023-07-09T03:01:24;9.40;;;7.50;;
26478;SDS011;14163;-26.142;27.992;2023-07-09T03:03:53;14.83;;;8.50;;
26478;SDS011;14163;-26.142;27.992;2023-07-09T03:06:23;8.83;;;7.83;;
26478;SDS011;14163;-26.142;27.992;2023-07-09T03:08:55;8.87;;;7.67;;
26478;SDS011;14163;-26.142;27.992;2023-07-09T03:11:24;11.37;;;7.13;;
26478;SDS011;14163;-26.142;27.992;2023-07-09T03:13:54;10.40;;;7.47;;
26478;SDS011;14163;-26.142;27.992;2023-07-09T03:16:23;8.30;;;7.00;;
26478;SDS011;14163;-26.142;27.992;2023-07-09T03:18:54;8.77;;;7.60;;
26478;SDS011;14163;-26.142;27.992;2023-07-09T03:21:24;8.27;;;7.47;;
26478;SDS011;14163;-26.142;27.992;2023-07-09T03:23:57;8.77;;;7.73;;
26478;SDS011;14163;-26.142;27.992;2023-07-09T03:26:26;8.70;;;7.87;;
26478;SDS011;14163;-26.142;27.992;2023-07-09T03:28:56;7.70;;;6.90;;
26478;SDS011;14163;-26.142;27.992;2023-07-09T03:31:26;10.43;;;7.30;;
26478;SDS011;14163;-26.142;27.992;2023-07-09T03:33:55;8.43;;;7.63;;
26478;SDS011;14163;-26.142;27.992;2023-07-09T03:36:25;10.67;;;7.73;;
26478;SDS011;14163;-26.142;27.992;2023-07-09T03:38:54;10.37;;;7.40;;
26478;SDS011;14163;-26.142;27.992;2023-07-09T03:41:25;9.37;;;7.70;;
26478;SDS011;14163;-26.142;27.992;2023-07-09T03:43:54;11.87;;;9.17;;
26478;SDS011;14163;-26.142;27.992;2023-07-09T03:46:24;14.50;;;9.50;;
26478;SDS011;14163;-26.142;27.992;2023-07-09T03:48:53;15.63;;;10.03;;
26478;SDS011;14163;-26.142;27.992;2023-07-09T03:51:23;13.37;;;10.73;;
26478;SDS011;14163;-26.142;27.992;2023-07-09T03:53:52;13.37;;;11.60;;
26478;SDS011;14163;-26.142;27.992;2023-07-09T03:56:24;14.97;;;12.37;;
26478;SDS011;14163;-26.142;27.992;2023-07-09T03:58:53;23.30;;;12.50;;
26478;SDS011;14163;-26.142;27.992;2023-07-09T04:01:23;13.40;;;11.33;;
26478;SDS011;14163;-26.142;27.992;2023-07-09T04:03:52;14.00;;;11.43;;
26478;SDS011;14163;-26.142;27.992;2023-07-09T04:06:22;14.80;;;11.13;;
26478;SDS011;14163;-26.142;27.992;2023-07-09T04:08:52;18.13;;;10.40;;
26478;SDS011;14163;-26.142;27.992;2023-07-09T04:11:23;15.37;;;10.97;;
26478;SDS011;14163;-26.142;27.992;2023-07-09T04:13:52;14.40;;;10.40;;
26478;SDS011;14163;-26.142;27.992;2023-07-09T04:16:22;13.27;;;10.23;;
26478;SDS011;14163;-26.142;27.992;2023-07-09T04:18:51;14.00;;;9.53;;
26478;SDS011;14163;-26.142;27.992;2023-07-09T04:21:20;10.60;;;9.50;;
26478;SDS011;14163;-26.142;27.992;2023-07-09T04:23:49;16.30;;;9.87;;
26478;SDS011;14163;-26.142;27.992;2023-07-09T04:26:18;15.53;;;11.00;;
26478;SDS011;14163;-26.142;27.992;2023-07-09T04:28:51;12.10;;;10.40;;
26478;SDS011;14163;-26.142;27.992;2023-07-09T04:31:20;24.20;;;9.97;;
26478;SDS011;14163;-26.142;27.992;2023-07-09T04:33:49;13.70;;;10.87;;
26478;SDS011;14163;-26.142;27.992;2023-07-09T04:36:18;11.13;;;9.87;;
26478;SDS011;14163;-26.142;27.992;2023-07-09T04:38:48;11.77;;;10.00;;
26478;SDS011;14163;-26.142;27.992;2023-07-09T04:41:17;10.10;;;9.10;;
26478;SDS011;14163;-26.142;27.992;2023-07-09T04:43:46;14.10;;;9.67;;
26478;SDS011;14163;-26.142;27.992;2023-07-09T04:46:17;9.77;;;8.87;;
26478;SDS011;14163;-26.142;27.992;2023-07-09T04:48:46;14.07;;;9.47;;
26478;SDS011;14163;-26.142;27.992;2023-07-09T04:51:16;13.73;;;9.83;;
26478;SDS011;14163;-26.142;27.992;2023-07-09T04:53:45;17.10;;;10.37;;
26478;SDS011;14163;-26.142;27.992;2023-07-09T04:56:17;15.13;;;10.13;;
26478;SDS011;14163;-26.142;27.992;2023-07-09T04:58:47;13.60;;;9.13;;
26478;SDS011;14163;-26.142;27.992;2023-07-09T05:01:18;12.20;;;9.17;;
26478;SDS011;14163;-26.142;27.992;2023-07-09T05:03:47;14.63;;;9.20;;
26478;SDS011;14163;-26.142;27.992;2023-07-09T05:06:16;12.23;;;9.50;;
26478;SDS011;14163;-26.142;27.992;2023-07-09T05:08:46;12.20;;;9.30;;
26478;SDS011;14163;-26.142;27.992;2023-07-09T05:11:16;15.13;;;9.60;;
26478;SDS011;14163;-26.142;27.992;2023-07-09T05:13:45;11.57;;;10.00;;
26478;SDS011;14163;-26.142;27.992;2023-07-09T05:16:14;10.57;;;8.60;;
26478;SDS011;14163;-26.142;27.992;2023-07-09T05:18:46;13.50;;;10.83;;
26478;SDS011;14163;-26.142;27.992;2023-07-09T05:21:16;14.13;;;10.70;;
26478;SDS011;14163;-26.142;27.992;2023-07-09T05:23:46;13.37;;;10.80;;
26478;SDS011;14163;-26.142;27.992;2023-07-09T05:26:15;13.80;;;10.40;;
26478;SDS011;14163;-26.142;27.992;2023-07-09T05:28:44;14.47;;;11.17;;
26478;SDS011;14163;-26.142;27.992;2023-07-09T05:31:13;16.23;;;11.43;;
26478;SDS011;14163;-26.142;27.992;2023-07-09T05:33:43;12.30;;;11.00;;
26478;SDS011;14163;-26.142;27.992;2023-07-09T05:36:15;13.10;;;11.20;;
26478;SDS011;14163;-26.142;27.992;2023-07-09T05:38:45;16.97;;;11.70;;
26478;SDS011;14163;-26.142;27.992;2023-07-09T05:41:15;16.50;;;10.47;;
26478;SDS011;14163;-26.142;27.992;2023-07-09T05:43:45;13.67;;;11.73;;
26478;SDS011;14163;-26.142;27.992;2023-07-09T05:46:14;13.33;;;11.63;;
26478;SDS011;14163;-26.142;27.992;2023-07-09T05:48:43;16.77;;;11.10;;
26478;SDS011;14163;-26.142;27.992;2023-07-09T05:51:14;16.60;;;12.83;;
26478;SDS011;14163;-26.142;27.992;2023-07-09T05:53:44;17.60;;;11.90;;
26478;SDS011;14163;-26.142;27.992;2023-07-09T05:56:13;16.93;;;12.80;;
26478;SDS011;14163;-26.142;27.992;2023-07-09T05:58:42;14.63;;;12.70;;
26478;SDS011;14163;-26.142;27.992;2023-07-09T06:01:12;12.73;;;11.50;;
26478;SDS011;14163;-26.142;27.992;2023-07-09T06:03:41;15.70;;;11.30;;
26478;SDS011;14163;-26.142;27.992;2023-07-09T06:06:11;13.40;;;11.13;;
26478;SDS011;14163;-26.142;27.992;2023-07-09T06:08:42;13.53;;;10.80;;
26478;SDS011;14163;-26.142;27.992;2023-07-09T06:11:12;14.10;;;10.40;;
26478;SDS011;14163;-26.142;27.992;2023-07-09T06:13:43;13.30;;;10.20;;
26478;SDS011;14163;-26.142;27.992;2023-07-09T06:16:14;14.00;;;9.50;;
26478;SDS011;14163;-26.142;27.992;2023-07-09T06:18:44;12.60;;;8.63;;
26478;SDS011;14163;-26.142;27.992;2023-07-09T06:21:16;14.30;;;8.97;;
26478;SDS011;14163;-26.142;27.992;2023-07-09T06:23:46;9.93;;;8.37;;
26478;SDS011;14163;-26.142;27.992;2023-07-09T06:26:15;9.73;;;8.63;;
26478;SDS011;14163;-26.142;27.992;2023-07-09T06:28:45;10.20;;;7.30;;
26478;SDS011;14163;-26.142;27.992;2023-07-09T06:31:14;8.93;;;6.90;;
26478;SDS011;14163;-26.142;27.992;2023-07-09T06:33:44;7.70;;;6.93;;
26478;SDS011;14163;-26.142;27.992;2023-07-09T06:36:16;9.77;;;7.40;;
26478;SDS011;14163;-26.142;27.992;2023-07-09T06:38:45;11.53;;;6.90;;
26478;SDS011;14163;-26.142;27.992;2023-07-09T06:41:16;9.87;;;6.40;;
26478;SDS011;14163;-26.142;27.992;2023-07-09T06:43:45;7.40;;;6.70;;
26478;SDS011;14163;-26.142;27.992;2023-07-09T06:46:15;6.70;;;6.10;;
26478;SDS011;14163;-26.142;27.992;2023-07-09T06:48:46;7.17;;;5.77;;
26478;SDS011;14163;-26.142;27.992;2023-07-09T06:51:17;6.20;;;5.60;;
26478;SDS011;14163;-26.142;27.992;2023-07-09T06:53:46;8.20;;;5.87;;
26478;SDS011;14163;-26.142;27.992;2023-07-09T06:56:18;7.47;;;5.03;;
26478;SDS011;14163;-26.142;27.992;2023-07-09T06:58:47;5.97;;;5.27;;
26478;SDS011;14163;-26.142;27.992;2023-07-09T07:01:17;6.67;;;5.37;;
26478;SDS011;14163;-26.142;27.992;2023-07-09T07:03:47;9.67;;;6.20;;
26478;SDS011;14163;-26.142;27.992;2023-07-09T07:06:20;11.33;;;6.07;;
26478;SDS011;14163;-26.142;27.992;2023-07-09T07:08:49;8.40;;;6.50;;
26478;SDS011;14163;-26.142;27.992;2023-07-09T07:11:19;8.40;;;5.77;;
26478;SDS011;14163;-26.142;27.992;2023-07-09T07:13:48;7.73;;;6.70;;
26478;SDS011;14163;-26.142;27.992;2023-07-09T07:16:20;9.93;;;6.50;;
26478;SDS011;14163;-26.142;27.992;2023-07-09T07:18:50;8.03;;;6.87;;
26478;SDS011;14163;-26.142;27.992;2023-07-09T07:21:22;10.40;;;7.83;;
26478;SDS011;14163;-26.142;27.992;2023-07-09T07:23:51;9.90;;;8.90;;
26478;SDS011;14163;-26.142;27.992;2023-07-09T07:26:21;17.07;;;12.20;;
26478;SDS011;14163;-26.142;27.992;2023-07-09T07:28:50;11.43;;;8.13;;
26478;SDS011;14163;-26.142;27.992;2023-07-09T07:31:20;10.80;;;9.50;;
26478;SDS011;14163;-26.142;27.992;2023-07-09T07:33:49;15.20;;;11.80;;
26478;SDS011;14163;-26.142;27.992;2023-07-09T07:36:21;13.77;;;12.10;;
26478;SDS011;14163;-26.142;27.992;2023-07-09T07:38:50;14.57;;;10.63;;
26478;SDS011;14163;-26.142;27.992;2023-07-09T07:41:20;25.87;;;18.00;;
26478;SDS011;14163;-26.142;27.992;2023-07-09T07:43:49;12.93;;;11.73;;
26478;SDS011;14163;-26.142;27.992;2023-07-09T07:46:18;10.43;;;8.37;;
26478;SDS011;14163;-26.142;27.992;2023-07-09T07:48:47;11.60;;;8.30;;
26478;SDS011;14163;-26.142;27.992;2023-07-09T07:51:17;10.83;;;8.87;;
26478;SDS011;14163;-26.142;27.992;2023-07-09T07:53:49;9.77;;;8.60;;
26478;SDS011;14163;-26.142;27.992;2023-07-09T07:56:18;10.33;;;7.77;;
26478;SDS011;14163;-26.142;27.992;2023-07-09T07:58:48;8.53;;;7.17;;
26478;SDS011;14163;-26.142;27.992;2023-07-09T08:01:17;8.10;;;6.87;;
26478;SDS011;14163;-26.142;27.992;2023-07-09T08:03:46;10.43;;;5.60;;
26478;SDS011;14163;-26.142;27.992;2023-07-09T08:06:16;6.60;;;6.00;;
26478;SDS011;14163;-26.142;27.992;2023-07-09T08:08:45;8.63;;;5.50;;
26478;SDS011;14163;-26.142;27.992;2023-07-09T08:11:17;8.10;;;4.80;;
26478;SDS011;14163;-26.142;27.992;2023-07-09T08:13:46;5.67;;;5.03;;
26478;SDS011;14163;-26.142;27.992;2023-07-09T08:16:16;7.67;;;5.20;;
26478;SDS011;14163;-26.142;27.992;2023-07-09T08:18:45;6.10;;;4.80;;
26478;SDS011;14163;-26.142;27.992;2023-07-09T08:21:15;5.00;;;4.50;;
26478;SDS011;14163;-26.142;27.992;2023-07-09T08:23:44;6.17;;;4.60;;
26478;SDS011;14163;-26.142;27.992;2023-07-09T08:26:16;5.13;;;4.50;;
26478;SDS011;14163;-26.142;27.992;2023-07-09T08:28:45;4.93;;;4.50;;
26478;SDS011;14163;-26.142;27.992;2023-07-09T08:31:14;4.60;;;4.17;;
26478;SDS011;14163;-26.142;27.992;2023-07-09T08:33:44;5.90;;;4.47;;
26478;SDS011;14163;-26.142;27.992;2023-07-09T08:36:13;6.47;;;4.83;;
26478;SDS011;14163;-26.142;27.992;2023-07-09T08:38:42;7.83;;;5.17;;
26478;SDS011;14163;-26.142;27.992;2023-07-09T08:41:18;5.17;;;4.47;;
26478;SDS011;14163;-26.142;27.992;2023-07-09T08:43:57;6.10;;;5.50;;
26478;SDS011;14163;-26.142;27.992;2023-07-09T08:46:34;4.97;;;4.53;;
26478;SDS011;14163;-26.142;27.992;2023-07-09T08:49:12;5.53;;;5.03;;
26478;SDS011;14163;-26.142;27.992;2023-07-09T08:51:47;6.43;;;5.80;;
26478;SDS011;14163;-26.142;27.992;2023-07-09T08:54:26;7.93;;;5.30;;
26478;SDS011;14163;-26.142;27.992;2023-07-09T08:57:02;5.50;;;5.00;;
26478;SDS011;14163;-26.142;27.992;2023-07-09T08:59:42;8.80;;;6.37;;
26478;SDS011;14163;-26.142;27.992;2023-07-09T09:02:14;6.60;;;5.73;;
26478;SDS011;14163;-26.142;27.992;2023-07-09T09:04:55;8.30;;;6.23;;
26478;SDS011;14163;-26.142;27.992;2023-07-09T09:07:28;11.30;;;6.30;;
26478;SDS011;14163;-26.142;27.992;2023-07-09T09:10:07;7.83;;;6.10;;
26478;SDS011;14163;-26.142;27.992;2023-07-09T09:12:44;6.03;;;5.43;;
26478;SDS011;14163;-26.142;27.992;2023-07-09T09:15:24;8.53;;;5.77;;
26478;SDS011;14163;-26.142;27.992;2023-07-09T09:17:55;5.47;;;4.90;;
26478;SDS011;14163;-26.142;27.992;2023-07-09T09:20:53;7.33;;;5.67;;
26478;SDS011;14163;-26.142;27.992;2023-07-09T09:23:25;6.83;;;5.63;;
26478;SDS011;14163;-26.142;27.992;2023-07-09T09:26:04;7.10;;;6.40;;
26478;SDS011;14163;-26.142;27.992;2023-07-09T09:28:45;21.90;;;16.40;;
26478;SDS011;14163;-26.142;27.992;2023-07-09T09:31:15;33.63;;;27.07;;
26478;SDS011;14163;-26.142;27.992;2023-07-09T09:33:46;7.07;;;6.40;;
26478;SDS011;14163;-26.142;27.992;2023-07-09T09:36:17;7.13;;;5.90;;
26478;SDS011;14163;-26.142;27.992;2023-07-09T09:38:48;9.20;;;6.70;;
26478;SDS011;14163;-26.142;27.992;2023-07-09T09:41:18;6.77;;;6.17;;
26478;SDS011;14163;-26.142;27.992;2023-07-09T09:43:53;6.97;;;6.37;;
26478;SDS011;14163;-26.142;27.992;2023-07-09T09:46:23;10.13;;;7.57;;
26478;SDS011;14163;-26.142;27.992;2023-07-09T09:48:54;6.70;;;6.10;;
26478;SDS011;14163;-26.142;27.992;2023-07-09T09:51:26;6.20;;;5.70;;
26478;SDS011;14163;-26.142;27.992;2023-07-09T09:53:57;6.93;;;6.33;;
26478;SDS011;14163;-26.142;27.992;2023-07-09T09:56:29;7.27;;;6.60;;
26478;SDS011;14163;-26.142;27.992;2023-07-09T09:59:04;8.83;;;8.03;;
26478;SDS011;14163;-26.142;27.992;2023-07-09T10:01:34;7.80;;;7.03;;
26478;SDS011;14163;-26.142;27.992;2023-07-09T10:04:04;7.50;;;6.90;;
26478;SDS011;14163;-26.142;27.992;2023-07-09T10:06:35;9.07;;;7.90;;
26478;SDS011;14163;-26.142;27.992;2023-07-09T10:09:10;11.33;;;8.90;;
26478;SDS011;14163;-26.142;27.992;2023-07-09T10:11:57;10.07;;;8.90;;
26478;SDS011;14163;-26.142;27.992;2023-07-09T10:14:33;12.83;;;11.50;;
26478;SDS011;14163;-26.142;27.992;2023-07-09T10:17:16;12.13;;;11.00;;
26478;SDS011;14163;-26.142;27.992;2023-07-09T10:19:50;8.50;;;7.80;;
26478;SDS011;14163;-26.142;27.992;2023-07-09T10:22:34;7.73;;;7.13;;
26478;SDS011;14163;-26.142;27.992;2023-07-09T10:25:12;6.03;;;5.63;;
26478;SDS011;14163;-26.142;27.992;2023-07-09T10:27:55;6.50;;;5.97;;
26478;SDS011;14163;-26.142;27.992;2023-07-09T10:30:44;6.03;;;5.63;;
26478;SDS011;14163;-26.142;27.992;2023-07-09T10:33:24;8.53;;;6.23;;
26478;SDS011;14163;-26.142;27.992;2023-07-09T10:36:02;6.53;;;6.10;;
26478;SDS011;14163;-26.142;27.992;2023-07-09T10:38:44;8.93;;;6.20;;
26478;SDS011;14163;-26.142;27.992;2023-07-09T10:41:19;6.30;;;5.70;;
26478;SDS011;14163;-26.142;27.992;2023-07-09T10:43:53;7.83;;;7.20;;
26478;SDS011;14163;-26.142;27.992;2023-07-09T10:46:31;9.93;;;8.93;;
26478;SDS011;14163;-26.142;27.992;2023-07-09T10:49:02;12.17;;;11.17;;
26478;SDS011;14163;-26.142;27.992;2023-07-09T10:51:37;9.30;;;6.60;;
26478;SDS011;14163;-26.142;27.992;2023-07-09T10:54:10;7.57;;;6.87;;
26478;SDS011;14163;-26.142;27.992;2023-07-09T10:56:47;7.57;;;6.97;;
26478;SDS011;14163;-26.142;27.992;2023-07-09T10:59:21;9.03;;;7.20;;
26478;SDS011;14163;-26.142;27.992;2023-07-09T11:01:58;8.70;;;7.60;;
26478;SDS011;14163;-26.142;27.992;2023-07-09T11:04:47;6.80;;;6.07;;
26478;SDS011;14163;-26.142;27.992;2023-07-09T11:07:22;6.03;;;5.53;;
26478;SDS011;14163;-26.142;27.992;2023-07-09T11:09:55;5.73;;;4.70;;
26478;SDS011;14163;-26.142;27.992;2023-07-09T11:12:31;5.17;;;4.70;;
26478;SDS011;14163;-26.142;27.992;2023-07-09T11:15:04;4.40;;;4.10;;
26478;SDS011;14163;-26.142;27.992;2023-07-09T11:17:40;4.80;;;4.40;;
26478;SDS011;14163;-26.142;27.992;2023-07-09T11:20:16;6.00;;;4.83;;
26478;SDS011;14163;-26.142;27.992;2023-07-09T11:22:51;4.83;;;3.80;;
26478;SDS011;14163;-26.142;27.992;2023-07-09T11:25:39;5.57;;;4.40;;
26478;SDS011;14163;-26.142;27.992;2023-07-09T11:28:09;4.50;;;4.20;;
26478;SDS011;14163;-26.142;27.992;2023-07-09T11:30:46;4.03;;;3.70;;
26478;SDS011;14163;-26.142;27.992;2023-07-09T11:33:19;3.73;;;3.40;;
26478;SDS011;14163;-26.142;27.992;2023-07-09T11:35:54;4.17;;;3.77;;
26478;SDS011;14163;-26.142;27.992;2023-07-09T11:38:39;4.40;;;3.50;;
26478;SDS011;14163;-26.142;27.992;2023-07-09T11:41:24;4.37;;;3.90;;
26478;SDS011;14163;-26.142;27.992;2023-07-09T11:44:03;7.70;;;4.40;;
26478;SDS011;14163;-26.142;27.992;2023-07-09T11:46:40;3.70;;;3.40;;
26478;SDS011;14163;-26.142;27.992;2023-07-09T11:49:19;7.40;;;3.70;;
26478;SDS011;14163;-26.142;27.992;2023-07-09T11:51:53;3.63;;;3.33;;
26478;SDS011;14163;-26.142;27.992;2023-07-09T11:54:26;3.60;;;3.20;;
26478;SDS011;14163;-26.142;27.992;2023-07-09T11:57:01;6.17;;;3.70;;
26478;SDS011;14163;-26.142;27.992;2023-07-09T11:59:37;3.20;;;2.77;;
26478;SDS011;14163;-26.142;27.992;2023-07-09T12:02:09;3.27;;;3.07;;
26478;SDS011;14163;-26.142;27.992;2023-07-09T12:04:46;3.37;;;3.07;;
26478;SDS011;14163;-26.142;27.992;2023-07-09T12:07:17;3.57;;;3.27;;
26478;SDS011;14163;-26.142;27.992;2023-07-09T12:09:49;3.70;;;2.90;;
26478;SDS011;14163;-26.142;27.992;2023-07-09T12:12:20;4.40;;;3.03;;
26478;SDS011;14163;-26.142;27.992;2023-07-09T12:14:52;2.90;;;2.67;;
26478;SDS011;14163;-26.142;27.992;2023-07-09T12:17:23;3.33;;;2.90;;
26478;SDS011;14163;-26.142;27.992;2023-07-09T12:19:57;3.47;;;3.00;;
26478;SDS011;14163;-26.142;27.992;2023-07-09T12:22:26;6.40;;;3.43;;
26478;SDS011;14163;-26.142;27.992;2023-07-09T12:24:58;3.10;;;2.80;;
26478;SDS011;14163;-26.142;27.992;2023-07-09T12:27:30;6.10;;;2.80;;
26478;SDS011;14163;-26.142;27.992;2023-07-09T12:30:03;3.20;;;3.00;;
26478;SDS011;14163;-26.142;27.992;2023-07-09T12:32:43;3.70;;;3.40;;
26478;SDS011;14163;-26.142;27.992;2023-07-09T12:35:16;4.20;;;3.80;;
26478;SDS011;14163;-26.142;27.992;2023-07-09T12:37:47;6.80;;;3.00;;
26478;SDS011;14163;-26.142;27.992;2023-07-09T12:40:20;2.70;;;2.50;;
26478;SDS011;14163;-26.142;27.992;2023-07-09T12:42:50;2.70;;;2.40;;
26478;SDS011;14163;-26.142;27.992;2023-07-09T12:45:23;3.53;;;3.23;;
26478;SDS011;14163;-26.142;27.992;2023-07-09T12:47:52;3.53;;;3.13;;
26478;SDS011;14163;-26.142;27.992;2023-07-09T12:50:29;7.27;;;3.57;;
26478;SDS011;14163;-26.142;27.992;2023-07-09T12:53:09;5.00;;;4.60;;
26478;SDS011;14163;-26.142;27.992;2023-07-09T12:55:44;5.40;;;4.90;;
26478;SDS011;14163;-26.142;27.992;2023-07-09T12:58:16;5.50;;;4.50;;
26478;SDS011;14163;-26.142;27.992;2023-07-09T13:00:50;4.90;;;3.23;;
26478;SDS011;14163;-26.142;27.992;2023-07-09T13:03:24;9.13;;;3.47;;
26478;SDS011;14163;-26.142;27.992;2023-07-09T13:05:57;5.30;;;4.20;;
26478;SDS011;14163;-26.142;27.992;2023-07-09T13:08:30;4.77;;;3.50;;
26478;SDS011;14163;-26.142;27.992;2023-07-09T13:11:01;4.17;;;3.77;;
26478;SDS011;14163;-26.142;27.992;2023-07-09T13:13:31;3.77;;;2.70;;
26478;SDS011;14163;-26.142;27.992;2023-07-09T13:16:01;3.77;;;3.13;;
26478;SDS011;14163;-26.142;27.992;2023-07-09T13:18:30;4.23;;;3.80;;
26478;SDS011;14163;-26.142;27.992;2023-07-09T13:21:03;3.97;;;3.03;;
26478;SDS011;14163;-26.142;27.992;2023-07-09T13:23:43;5.27;;;3.07;;
26478;SDS011;14163;-26.142;27.992;2023-07-09T13:26:13;3.50;;;3.20;;
26478;SDS011;14163;-26.142;27.992;2023-07-09T13:28:43;8.40;;;3.23;;
26478;SDS011;14163;-26.142;27.992;2023-07-09T13:31:13;5.17;;;3.00;;
26478;SDS011;14163;-26.142;27.992;2023-07-09T13:33:44;5.70;;;3.17;;
26478;SDS011;14163;-26.142;27.992;2023-07-09T13:36:23;3.00;;;2.80;;
26478;SDS011;14163;-26.142;27.992;2023-07-09T13:38:52;3.60;;;2.80;;
26478;SDS011;14163;-26.142;27.992;2023-07-09T13:41:21;4.53;;;2.20;;
26478;SDS011;14163;-26.142;27.992;2023-07-09T13:43:51;3.47;;;2.10;;
26478;SDS011;14163;-26.142;27.992;2023-07-09T13:46:22;2.50;;;1.90;;
26478;SDS011;14163;-26.142;27.992;2023-07-09T13:48:52;2.03;;;1.80;;
26478;SDS011;14163;-26.142;27.992;2023-07-09T13:51:23;4.73;;;2.80;;
26478;SDS011;14163;-26.142;27.992;2023-07-09T13:53:54;2.00;;;1.90;;
26478;SDS011;14163;-26.142;27.992;2023-07-09T13:56:25;3.70;;;1.73;;
26478;SDS011;14163;-26.142;27.992;2023-07-09T13:58:56;2.27;;;2.00;;
26478;SDS011;14163;-26.142;27.992;2023-07-09T14:01:25;2.03;;;1.73;;
26478;SDS011;14163;-26.142;27.992;2023-07-09T14:03:56;2.50;;;1.67;;
26478;SDS011;14163;-26.142;27.992;2023-07-09T14:06:27;5.93;;;3.17;;
26478;SDS011;14163;-26.142;27.992;2023-07-09T14:08:57;4.60;;;3.43;;
26478;SDS011;14163;-26.142;27.992;2023-07-09T14:11:29;3.80;;;3.10;;
26478;SDS011;14163;-26.142;27.992;2023-07-09T14:13:58;4.70;;;3.20;;
26478;SDS011;14163;-26.142;27.992;2023-07-09T14:16:28;5.73;;;2.60;;
26478;SDS011;14163;-26.142;27.992;2023-07-09T14:18:57;2.90;;;2.03;;
26478;SDS011;14163;-26.142;27.992;2023-07-09T14:21:28;5.00;;;2.80;;
26478;SDS011;14163;-26.142;27.992;2023-07-09T14:23:58;3.43;;;2.90;;
26478;SDS011;14163;-26.142;27.992;2023-07-09T14:26:27;3.57;;;3.23;;
26478;SDS011;14163;-26.142;27.992;2023-07-09T14:28:57;5.27;;;3.30;;
26478;SDS011;14163;-26.142;27.992;2023-07-09T14:31:27;4.00;;;3.30;;
26478;SDS011;14163;-26.142;27.992;2023-07-09T14:34:07;4.77;;;3.60;;
26478;SDS011;14163;-26.142;27.992;2023-07-09T14:36:51;3.03;;;2.70;;
26478;SDS011;14163;-26.142;27.992;2023-07-09T14:39:21;2.50;;;2.30;;
26478;SDS011;14163;-26.142;27.992;2023-07-09T14:41:51;2.87;;;2.40;;